Ana Sayfa
METAR-TAF:

METAR-TAF

Havaalanları :

Rand Airport

Germiston, Güney Afrika

Enlem: 26-14-33S, Boylam: 028-09-04E, yükseklik: 1671 m

Güncel hava durumu gözlemi

Rapor saat 11:00 UTC de 11 saat ve 54 dakika önce yapıldı.
Rüzgar güney/güneydoğudan 10 kt
Sıcaklık 24°C
Nem 13%
Basınç 1031 hPa
Görüş mesafesi 10 km veya daha fazla
1500 m altında bulut yok ve kümülonimbus yok

METAR: FAGM 211100Z 15010KT CAVOK 24/M06 Q1031

Saat: 00:54 (22:54 UTC)


TAF: eksik

4.000'den fazla havaalanı için hava durumu gözlemleri ve tahminleri (METAR ve TAF raporları).

Kullanılabilir istasyonlar harita üzerinde sarı ve kırmızı noktalarla gösterilir.

İstasyonun adını görmek için fareyi noktanın üzerinde gezdirin.

Sonrasında hava gözlem ve tahminlerini görmek için tıklayın.

Haritayı değiştirmek için: yaklaştırmak için siyah artı işaretli yeşil düğmeye ve uzaklaştırmak için de eksi işaretli düğmeye hızla tıklayın; bitişik haritalar için yeşil okları kullanın.


METAR-TAF: